sensor_id;sensor_type;location;lat;lon;timestamp;P1;durP1;ratioP1;P2;durP2;ratioP2
13592;SDS011;6867;50.998;4.250;2024-02-21T00:01:22;24.27;;;7.90;;
13592;SDS011;6867;50.998;4.250;2024-02-21T00:03:48;15.17;;;6.63;;
13592;SDS011;6867;50.998;4.250;2024-02-21T00:06:15;12.50;;;6.03;;
13592;SDS011;6867;50.998;4.250;2024-02-21T00:08:43;18.43;;;6.83;;
13592;SDS011;6867;50.998;4.250;2024-02-21T00:11:10;17.63;;;6.77;;
13592;SDS011;6867;50.998;4.250;2024-02-21T00:13:37;17.63;;;7.90;;
13592;SDS011;6867;50.998;4.250;2024-02-21T00:16:03;13.40;;;7.37;;
13592;SDS011;6867;50.998;4.250;2024-02-21T00:18:30;15.13;;;7.03;;
13592;SDS011;6867;50.998;4.250;2024-02-21T00:20:57;11.73;;;6.03;;
13592;SDS011;6867;50.998;4.250;2024-02-21T00:23:24;21.43;;;7.37;;
13592;SDS011;6867;50.998;4.250;2024-02-21T00:25:52;13.43;;;6.70;;
13592;SDS011;6867;50.998;4.250;2024-02-21T00:28:18;15.83;;;6.97;;
13592;SDS011;6867;50.998;4.250;2024-02-21T00:30:46;21.03;;;7.47;;
13592;SDS011;6867;50.998;4.250;2024-02-21T00:33:15;16.73;;;6.93;;
13592;SDS011;6867;50.998;4.250;2024-02-21T00:35:42;18.17;;;7.20;;
13592;SDS011;6867;50.998;4.250;2024-02-21T00:38:09;15.37;;;7.07;;
13592;SDS011;6867;50.998;4.250;2024-02-21T00:40:35;18.60;;;6.93;;
13592;SDS011;6867;50.998;4.250;2024-02-21T00:43:04;11.77;;;6.33;;
13592;SDS011;6867;50.998;4.250;2024-02-21T00:45:30;16.57;;;7.07;;
13592;SDS011;6867;50.998;4.250;2024-02-21T00:47:57;11.70;;;5.93;;
13592;SDS011;6867;50.998;4.250;2024-02-21T00:50:24;12.60;;;6.50;;
13592;SDS011;6867;50.998;4.250;2024-02-21T00:52:50;19.87;;;7.03;;
13592;SDS011;6867;50.998;4.250;2024-02-21T00:55:17;16.30;;;7.30;;
13592;SDS011;6867;50.998;4.250;2024-02-21T00:57:44;18.00;;;6.60;;
13592;SDS011;6867;50.998;4.250;2024-02-21T01:00:12;21.83;;;7.50;;
13592;SDS011;6867;50.998;4.250;2024-02-21T01:02:39;18.30;;;7.17;;
13592;SDS011;6867;50.998;4.250;2024-02-21T01:05:06;14.40;;;7.23;;
13592;SDS011;6867;50.998;4.250;2024-02-21T01:07:33;16.67;;;7.90;;
13592;SDS011;6867;50.998;4.250;2024-02-21T01:10:00;16.40;;;7.37;;
13592;SDS011;6867;50.998;4.250;2024-02-21T01:12:27;16.60;;;7.33;;
13592;SDS011;6867;50.998;4.250;2024-02-21T01:14:53;21.97;;;7.50;;
13592;SDS011;6867;50.998;4.250;2024-02-21T01:17:21;16.70;;;7.23;;
13592;SDS011;6867;50.998;4.250;2024-02-21T01:19:48;17.90;;;7.47;;
13592;SDS011;6867;50.998;4.250;2024-02-21T01:22:15;16.63;;;6.60;;
13592;SDS011;6867;50.998;4.250;2024-02-21T01:24:42;17.33;;;6.57;;
13592;SDS011;6867;50.998;4.250;2024-02-21T01:27:09;21.07;;;7.43;;
13592;SDS011;6867;50.998;4.250;2024-02-21T01:29:36;15.73;;;7.17;;
13592;SDS011;6867;50.998;4.250;2024-02-21T01:32:03;19.30;;;6.90;;
13592;SDS011;6867;50.998;4.250;2024-02-21T01:34:31;19.23;;;7.53;;
13592;SDS011;6867;50.998;4.250;2024-02-21T01:36:58;20.10;;;7.13;;
13592;SDS011;6867;50.998;4.250;2024-02-21T01:39:29;21.60;;;7.83;;
13592;SDS011;6867;50.998;4.250;2024-02-21T01:41:56;16.23;;;7.17;;
13592;SDS011;6867;50.998;4.250;2024-02-21T01:44:23;13.70;;;6.73;;
13592;SDS011;6867;50.998;4.250;2024-02-21T01:46:50;15.80;;;7.37;;
13592;SDS011;6867;50.998;4.250;2024-02-21T01:49:17;22.03;;;8.10;;
13592;SDS011;6867;50.998;4.250;2024-02-21T01:51:46;19.77;;;7.87;;
13592;SDS011;6867;50.998;4.250;2024-02-21T01:54:13;24.23;;;7.93;;
13592;SDS011;6867;50.998;4.250;2024-02-21T01:56:41;18.33;;;8.77;;
13592;SDS011;6867;50.998;4.250;2024-02-21T01:59:08;19.97;;;9.17;;
13592;SDS011;6867;50.998;4.250;2024-02-21T02:01:37;23.37;;;8.60;;
13592;SDS011;6867;50.998;4.250;2024-02-21T02:04:04;22.93;;;9.23;;
13592;SDS011;6867;50.998;4.250;2024-02-21T02:06:31;15.17;;;8.77;;
13592;SDS011;6867;50.998;4.250;2024-02-21T02:08:59;22.67;;;9.13;;
13592;SDS011;6867;50.998;4.250;2024-02-21T02:11:26;22.17;;;10.43;;
13592;SDS011;6867;50.998;4.250;2024-02-21T02:13:52;18.63;;;9.30;;
13592;SDS011;6867;50.998;4.250;2024-02-21T02:16:19;18.83;;;8.93;;
13592;SDS011;6867;50.998;4.250;2024-02-21T02:18:46;20.37;;;9.60;;
13592;SDS011;6867;50.998;4.250;2024-02-21T02:21:13;17.70;;;9.10;;
13592;SDS011;6867;50.998;4.250;2024-02-21T02:23:50;19.47;;;8.90;;
13592;SDS011;6867;50.998;4.250;2024-02-21T02:26:17;26.57;;;9.83;;
13592;SDS011;6867;50.998;4.250;2024-02-21T02:28:47;17.17;;;8.33;;
13592;SDS011;6867;50.998;4.250;2024-02-21T02:31:14;20.73;;;8.67;;
13592;SDS011;6867;50.998;4.250;2024-02-21T02:33:42;21.60;;;9.07;;
13592;SDS011;6867;50.998;4.250;2024-02-21T02:36:09;24.53;;;8.90;;
13592;SDS011;6867;50.998;4.250;2024-02-21T02:38:36;21.27;;;8.23;;
13592;SDS011;6867;50.998;4.250;2024-02-21T02:41:04;22.83;;;9.10;;
13592;SDS011;6867;50.998;4.250;2024-02-21T02:43:31;19.00;;;8.07;;
13592;SDS011;6867;50.998;4.250;2024-02-21T02:45:58;13.97;;;7.87;;
13592;SDS011;6867;50.998;4.250;2024-02-21T02:48:24;19.70;;;7.87;;
13592;SDS011;6867;50.998;4.250;2024-02-21T02:50:51;22.43;;;8.37;;
13592;SDS011;6867;50.998;4.250;2024-02-21T02:53:18;16.27;;;8.10;;
13592;SDS011;6867;50.998;4.250;2024-02-21T02:55:44;16.60;;;8.07;;
13592;SDS011;6867;50.998;4.250;2024-02-21T02:58:12;22.13;;;8.13;;
13592;SDS011;6867;50.998;4.250;2024-02-21T03:00:39;19.87;;;8.47;;
13592;SDS011;6867;50.998;4.250;2024-02-21T03:03:06;17.33;;;8.20;;
13592;SDS011;6867;50.998;4.250;2024-02-21T03:05:33;19.57;;;8.60;;
13592;SDS011;6867;50.998;4.250;2024-02-21T03:08:00;19.60;;;8.27;;
13592;SDS011;6867;50.998;4.250;2024-02-21T03:10:27;20.53;;;8.37;;
13592;SDS011;6867;50.998;4.250;2024-02-21T03:12:54;14.87;;;7.50;;
13592;SDS011;6867;50.998;4.250;2024-02-21T03:15:22;19.43;;;9.03;;
13592;SDS011;6867;50.998;4.250;2024-02-21T03:17:49;17.60;;;7.93;;
13592;SDS011;6867;50.998;4.250;2024-02-21T03:20:15;13.70;;;8.30;;
13592;SDS011;6867;50.998;4.250;2024-02-21T03:22:44;18.80;;;8.27;;
13592;SDS011;6867;50.998;4.250;2024-02-21T03:25:11;14.20;;;7.47;;
13592;SDS011;6867;50.998;4.250;2024-02-21T03:27:40;18.17;;;7.87;;
13592;SDS011;6867;50.998;4.250;2024-02-21T03:30:07;17.90;;;8.07;;
13592;SDS011;6867;50.998;4.250;2024-02-21T03:32:35;18.40;;;7.70;;
13592;SDS011;6867;50.998;4.250;2024-02-21T03:35:04;19.40;;;7.23;;
13592;SDS011;6867;50.998;4.250;2024-02-21T03:37:31;13.83;;;7.07;;
13592;SDS011;6867;50.998;4.250;2024-02-21T03:39:57;14.40;;;8.87;;
13592;SDS011;6867;50.998;4.250;2024-02-21T03:42:26;16.17;;;7.40;;
13592;SDS011;6867;50.998;4.250;2024-02-21T03:44:54;19.53;;;7.77;;
13592;SDS011;6867;50.998;4.250;2024-02-21T03:47:21;19.80;;;7.77;;
13592;SDS011;6867;50.998;4.250;2024-02-21T03:49:49;19.30;;;8.33;;
13592;SDS011;6867;50.998;4.250;2024-02-21T03:52:16;20.13;;;8.10;;
13592;SDS011;6867;50.998;4.250;2024-02-21T03:54:42;18.27;;;7.80;;
13592;SDS011;6867;50.998;4.250;2024-02-21T03:57:09;18.20;;;7.77;;
13592;SDS011;6867;50.998;4.250;2024-02-21T03:59:36;16.63;;;8.17;;
13592;SDS011;6867;50.998;4.250;2024-02-21T04:02:04;17.87;;;8.27;;
13592;SDS011;6867;50.998;4.250;2024-02-21T04:04:33;15.00;;;8.17;;
13592;SDS011;6867;50.998;4.250;2024-02-21T04:07:02;16.47;;;8.33;;
13592;SDS011;6867;50.998;4.250;2024-02-21T04:09:31;17.43;;;8.33;;
13592;SDS011;6867;50.998;4.250;2024-02-21T04:11:58;17.17;;;8.50;;
13592;SDS011;6867;50.998;4.250;2024-02-21T04:14:25;16.97;;;8.23;;
13592;SDS011;6867;50.998;4.250;2024-02-21T04:16:51;15.70;;;7.37;;
13592;SDS011;6867;50.998;4.250;2024-02-21T04:19:18;18.97;;;8.20;;
13592;SDS011;6867;50.998;4.250;2024-02-21T04:21:44;18.23;;;7.97;;
13592;SDS011;6867;50.998;4.250;2024-02-21T04:24:13;17.63;;;8.50;;
13592;SDS011;6867;50.998;4.250;2024-02-21T04:26:39;15.50;;;8.63;;
13592;SDS011;6867;50.998;4.250;2024-02-21T04:29:06;15.90;;;8.17;;
13592;SDS011;6867;50.998;4.250;2024-02-21T04:31:32;20.60;;;8.70;;
13592;SDS011;6867;50.998;4.250;2024-02-21T04:33:59;19.30;;;9.13;;
13592;SDS011;6867;50.998;4.250;2024-02-21T04:36:26;20.67;;;8.70;;
13592;SDS011;6867;50.998;4.250;2024-02-21T04:38:52;19.43;;;9.50;;
13592;SDS011;6867;50.998;4.250;2024-02-21T04:41:20;18.57;;;8.53;;
13592;SDS011;6867;50.998;4.250;2024-02-21T04:43:47;23.67;;;8.37;;
13592;SDS011;6867;50.998;4.250;2024-02-21T04:46:14;20.83;;;9.40;;
13592;SDS011;6867;50.998;4.250;2024-02-21T04:48:41;18.87;;;9.23;;
13592;SDS011;6867;50.998;4.250;2024-02-21T04:51:07;15.43;;;9.00;;
13592;SDS011;6867;50.998;4.250;2024-02-21T04:53:34;19.27;;;8.83;;
13592;SDS011;6867;50.998;4.250;2024-02-21T04:56:01;16.03;;;8.23;;
13592;SDS011;6867;50.998;4.250;2024-02-21T04:58:29;16.87;;;8.57;;
13592;SDS011;6867;50.998;4.250;2024-02-21T05:00:56;18.60;;;9.43;;
13592;SDS011;6867;50.998;4.250;2024-02-21T05:03:23;18.50;;;9.43;;
13592;SDS011;6867;50.998;4.250;2024-02-21T05:05:49;24.70;;;10.53;;
13592;SDS011;6867;50.998;4.250;2024-02-21T05:08:16;25.50;;;10.60;;
13592;SDS011;6867;50.998;4.250;2024-02-21T05:10:43;23.03;;;10.00;;
13592;SDS011;6867;50.998;4.250;2024-02-21T05:13:09;21.10;;;9.90;;
13592;SDS011;6867;50.998;4.250;2024-02-21T05:15:38;17.87;;;10.27;;
13592;SDS011;6867;50.998;4.250;2024-02-21T05:18:04;19.13;;;9.40;;
13592;SDS011;6867;50.998;4.250;2024-02-21T05:20:31;24.57;;;11.17;;
13592;SDS011;6867;50.998;4.250;2024-02-21T05:22:57;22.17;;;10.53;;
13592;SDS011;6867;50.998;4.250;2024-02-21T05:25:24;22.00;;;10.67;;
13592;SDS011;6867;50.998;4.250;2024-02-21T05:27:51;24.73;;;11.83;;
13592;SDS011;6867;50.998;4.250;2024-02-21T05:30:18;22.30;;;10.90;;
13592;SDS011;6867;50.998;4.250;2024-02-21T05:32:46;26.20;;;10.50;;
13592;SDS011;6867;50.998;4.250;2024-02-21T05:35:13;25.33;;;10.87;;
13592;SDS011;6867;50.998;4.250;2024-02-21T05:37:40;26.50;;;11.03;;
13592;SDS011;6867;50.998;4.250;2024-02-21T05:40:07;25.03;;;11.77;;
13592;SDS011;6867;50.998;4.250;2024-02-21T05:42:37;21.67;;;10.40;;
13592;SDS011;6867;50.998;4.250;2024-02-21T05:45:04;22.60;;;10.13;;
13592;SDS011;6867;50.998;4.250;2024-02-21T05:47:31;22.93;;;10.37;;
13592;SDS011;6867;50.998;4.250;2024-02-21T05:49:59;20.17;;;10.27;;
13592;SDS011;6867;50.998;4.250;2024-02-21T05:52:26;20.00;;;9.93;;
13592;SDS011;6867;50.998;4.250;2024-02-21T05:54:53;16.77;;;9.90;;
13592;SDS011;6867;50.998;4.250;2024-02-21T05:57:20;21.73;;;8.93;;
13592;SDS011;6867;50.998;4.250;2024-02-21T05:59:46;23.03;;;9.83;;
13592;SDS011;6867;50.998;4.250;2024-02-21T06:02:13;19.50;;;9.63;;
13592;SDS011;6867;50.998;4.250;2024-02-21T06:04:40;18.83;;;8.73;;
13592;SDS011;6867;50.998;4.250;2024-02-21T06:07:09;19.40;;;9.27;;
13592;SDS011;6867;50.998;4.250;2024-02-21T06:09:35;16.40;;;8.57;;
13592;SDS011;6867;50.998;4.250;2024-02-21T06:12:02;19.13;;;8.13;;
13592;SDS011;6867;50.998;4.250;2024-02-21T06:14:29;14.17;;;8.43;;
13592;SDS011;6867;50.998;4.250;2024-02-21T06:16:56;16.37;;;8.47;;
13592;SDS011;6867;50.998;4.250;2024-02-21T06:19:23;13.13;;;7.83;;
13592;SDS011;6867;50.998;4.250;2024-02-21T06:21:49;16.13;;;7.73;;
13592;SDS011;6867;50.998;4.250;2024-02-21T06:24:17;14.40;;;7.80;;
13592;SDS011;6867;50.998;4.250;2024-02-21T06:26:44;17.87;;;8.27;;
13592;SDS011;6867;50.998;4.250;2024-02-21T06:29:11;14.53;;;7.77;;
13592;SDS011;6867;50.998;4.250;2024-02-21T06:31:38;14.20;;;7.43;;
13592;SDS011;6867;50.998;4.250;2024-02-21T06:34:06;15.80;;;8.20;;
13592;SDS011;6867;50.998;4.250;2024-02-21T06:36:32;11.30;;;7.50;;
13592;SDS011;6867;50.998;4.250;2024-02-21T06:38:59;15.87;;;7.53;;
13592;SDS011;6867;50.998;4.250;2024-02-21T06:41:27;16.73;;;7.73;;
13592;SDS011;6867;50.998;4.250;2024-02-21T06:43:55;13.87;;;7.73;;
13592;SDS011;6867;50.998;4.250;2024-02-21T06:46:22;14.37;;;7.57;;
13592;SDS011;6867;50.998;4.250;2024-02-21T06:48:50;13.93;;;7.80;;
13592;SDS011;6867;50.998;4.250;2024-02-21T06:51:17;16.37;;;8.13;;
13592;SDS011;6867;50.998;4.250;2024-02-21T06:53:43;14.97;;;7.13;;
13592;SDS011;6867;50.998;4.250;2024-02-21T06:56:10;12.07;;;7.60;;
13592;SDS011;6867;50.998;4.250;2024-02-21T06:58:38;13.80;;;7.63;;
13592;SDS011;6867;50.998;4.250;2024-02-21T07:01:05;11.57;;;7.27;;
13592;SDS011;6867;50.998;4.250;2024-02-21T07:03:32;16.33;;;8.77;;
13592;SDS011;6867;50.998;4.250;2024-02-21T07:05:59;13.50;;;8.57;;
13592;SDS011;6867;50.998;4.250;2024-02-21T07:08:25;13.40;;;7.93;;
13592;SDS011;6867;50.998;4.250;2024-02-21T07:10:52;14.37;;;8.03;;
13592;SDS011;6867;50.998;4.250;2024-02-21T07:13:19;12.80;;;7.63;;
13592;SDS011;6867;50.998;4.250;2024-02-21T07:15:48;11.13;;;7.50;;
13592;SDS011;6867;50.998;4.250;2024-02-21T07:18:14;11.67;;;7.40;;
13592;SDS011;6867;50.998;4.250;2024-02-21T07:20:41;14.20;;;7.27;;
13592;SDS011;6867;50.998;4.250;2024-02-21T07:23:08;14.27;;;7.23;;
13592;SDS011;6867;50.998;4.250;2024-02-21T07:25:35;10.83;;;7.63;;
13592;SDS011;6867;50.998;4.250;2024-02-21T07:28:01;15.70;;;7.70;;
13592;SDS011;6867;50.998;4.250;2024-02-21T07:30:29;19.70;;;9.27;;
13592;SDS011;6867;50.998;4.250;2024-02-21T07:32:57;14.73;;;7.83;;
13592;SDS011;6867;50.998;4.250;2024-02-21T07:35:23;11.83;;;7.37;;
13592;SDS011;6867;50.998;4.250;2024-02-21T07:37:50;15.60;;;7.40;;
13592;SDS011;6867;50.998;4.250;2024-02-21T07:40:17;12.57;;;7.87;;
13592;SDS011;6867;50.998;4.250;2024-02-21T07:42:44;13.60;;;7.77;;
13592;SDS011;6867;50.998;4.250;2024-02-21T07:45:10;10.97;;;7.83;;
13592;SDS011;6867;50.998;4.250;2024-02-21T07:47:37;12.70;;;8.03;;
13592;SDS011;6867;50.998;4.250;2024-02-21T07:50:06;11.67;;;6.90;;
13592;SDS011;6867;50.998;4.250;2024-02-21T07:52:33;12.03;;;8.00;;
13592;SDS011;6867;50.998;4.250;2024-02-21T07:55:00;12.63;;;7.77;;
13592;SDS011;6867;50.998;4.250;2024-02-21T07:57:28;13.90;;;6.60;;
13592;SDS011;6867;50.998;4.250;2024-02-21T07:59:55;13.97;;;8.00;;
13592;SDS011;6867;50.998;4.250;2024-02-21T08:02:21;15.10;;;9.13;;
13592;SDS011;6867;50.998;4.250;2024-02-21T08:04:48;16.67;;;9.30;;
13592;SDS011;6867;50.998;4.250;2024-02-21T08:07:16;17.07;;;9.60;;
13592;SDS011;6867;50.998;4.250;2024-02-21T08:09:43;16.80;;;9.90;;
13592;SDS011;6867;50.998;4.250;2024-02-21T08:12:09;15.07;;;10.00;;
13592;SDS011;6867;50.998;4.250;2024-02-21T08:14:36;18.50;;;11.10;;
13592;SDS011;6867;50.998;4.250;2024-02-21T08:17:03;23.07;;;11.93;;
13592;SDS011;6867;50.998;4.250;2024-02-21T08:19:30;22.20;;;12.77;;
13592;SDS011;6867;50.998;4.250;2024-02-21T08:21:56;17.70;;;12.17;;
13592;SDS011;6867;50.998;4.250;2024-02-21T08:24:24;18.90;;;10.57;;
13592;SDS011;6867;50.998;4.250;2024-02-21T08:26:51;16.10;;;10.53;;
13592;SDS011;6867;50.998;4.250;2024-02-21T08:29:18;21.07;;;10.37;;
13592;SDS011;6867;50.998;4.250;2024-02-21T08:31:45;18.27;;;9.93;;
13592;SDS011;6867;50.998;4.250;2024-02-21T08:34:12;15.83;;;8.80;;
13592;SDS011;6867;50.998;4.250;2024-02-21T08:36:38;16.77;;;8.63;;
13592;SDS011;6867;50.998;4.250;2024-02-21T08:39:05;18.20;;;8.67;;
13592;SDS011;6867;50.998;4.250;2024-02-21T08:41:34;14.13;;;8.27;;
13592;SDS011;6867;50.998;4.250;2024-02-21T08:44:00;14.37;;;7.70;;
13592;SDS011;6867;50.998;4.250;2024-02-21T08:46:28;14.53;;;7.97;;
13592;SDS011;6867;50.998;4.250;2024-02-21T08:48:54;14.80;;;7.30;;
13592;SDS011;6867;50.998;4.250;2024-02-21T08:51:21;15.43;;;7.30;;
13592;SDS011;6867;50.998;4.250;2024-02-21T08:53:48;10.13;;;6.67;;
13592;SDS011;6867;50.998;4.250;2024-02-21T08:56:15;11.47;;;6.70;;
13592;SDS011;6867;50.998;4.250;2024-02-21T08:58:44;11.07;;;6.77;;
13592;SDS011;6867;50.998;4.250;2024-02-21T09:01:11;12.33;;;6.37;;
13592;SDS011;6867;50.998;4.250;2024-02-21T09:03:39;9.33;;;5.53;;
13592;SDS011;6867;50.998;4.250;2024-02-21T09:06:06;9.97;;;4.87;;
13592;SDS011;6867;50.998;4.250;2024-02-21T09:08:33;10.60;;;5.60;;
13592;SDS011;6867;50.998;4.250;2024-02-21T09:11:00;11.03;;;5.37;;
13592;SDS011;6867;50.998;4.250;2024-02-21T09:13:27;12.03;;;5.70;;
13592;SDS011;6867;50.998;4.250;2024-02-21T09:15:55;9.10;;;5.10;;
13592;SDS011;6867;50.998;4.250;2024-02-21T09:18:22;9.63;;;5.57;;
13592;SDS011;6867;50.998;4.250;2024-02-21T09:20:48;9.57;;;5.13;;
13592;SDS011;6867;50.998;4.250;2024-02-21T09:23:15;9.27;;;4.73;;
13592;SDS011;6867;50.998;4.250;2024-02-21T09:25:42;9.53;;;5.23;;
13592;SDS011;6867;50.998;4.250;2024-02-21T09:28:08;10.67;;;4.70;;
13592;SDS011;6867;50.998;4.250;2024-02-21T09:30:35;12.63;;;5.23;;
13592;SDS011;6867;50.998;4.250;2024-02-21T09:33:04;12.27;;;5.07;;
13592;SDS011;6867;50.998;4.250;2024-02-21T09:35:31;7.60;;;4.67;;
13592;SDS011;6867;50.998;4.250;2024-02-21T09:37:59;6.93;;;4.27;;
13592;SDS011;6867;50.998;4.250;2024-02-21T09:40:26;9.03;;;4.60;;
13592;SDS011;6867;50.998;4.250;2024-02-21T09:42:54;5.47;;;3.43;;
13592;SDS011;6867;50.998;4.250;2024-02-21T09:45:29;7.53;;;4.10;;
13592;SDS011;6867;50.998;4.250;2024-02-21T09:48:11;9.40;;;4.00;;
13592;SDS011;6867;50.998;4.250;2024-02-21T09:50:51;7.53;;;4.13;;
13592;SDS011;6867;50.998;4.250;2024-02-21T09:53:21;8.17;;;3.57;;
13592;SDS011;6867;50.998;4.250;2024-02-21T09:55:50;6.17;;;4.10;;
13592;SDS011;6867;50.998;4.250;2024-02-21T09:58:18;8.37;;;4.17;;
13592;SDS011;6867;50.998;4.250;2024-02-21T10:00:45;7.20;;;4.10;;
13592;SDS011;6867;50.998;4.250;2024-02-21T10:03:13;9.20;;;4.17;;
13592;SDS011;6867;50.998;4.250;2024-02-21T10:05:45;5.90;;;4.33;;
13592;SDS011;6867;50.998;4.250;2024-02-21T10:08:15;8.27;;;4.93;;
13592;SDS011;6867;50.998;4.250;2024-02-21T10:10:42;8.23;;;4.03;;
13592;SDS011;6867;50.998;4.250;2024-02-21T10:13:09;7.87;;;4.20;;
13592;SDS011;6867;50.998;4.250;2024-02-21T10:15:36;9.67;;;4.57;;
13592;SDS011;6867;50.998;4.250;2024-02-21T10:18:04;8.47;;;3.83;;
13592;SDS011;6867;50.998;4.250;2024-02-21T10:20:33;7.57;;;3.97;;
13592;SDS011;6867;50.998;4.250;2024-02-21T10:23:00;11.70;;;4.00;;
13592;SDS011;6867;50.998;4.250;2024-02-21T10:25:28;7.00;;;4.13;;
13592;SDS011;6867;50.998;4.250;2024-02-21T10:27:55;9.27;;;4.33;;
13592;SDS011;6867;50.998;4.250;2024-02-21T10:30:23;12.07;;;4.13;;
13592;SDS011;6867;50.998;4.250;2024-02-21T10:32:50;11.10;;;5.47;;
13592;SDS011;6867;50.998;4.250;2024-02-21T10:35:25;8.27;;;4.47;;
13592;SDS011;6867;50.998;4.250;2024-02-21T10:37:54;8.30;;;4.43;;
13592;SDS011;6867;50.998;4.250;2024-02-21T10:40:22;11.57;;;4.47;;
13592;SDS011;6867;50.998;4.250;2024-02-21T10:42:50;9.23;;;4.20;;
13592;SDS011;6867;50.998;4.250;2024-02-21T10:45:22;8.93;;;4.70;;
13592;SDS011;6867;50.998;4.250;2024-02-21T10:47:52;7.53;;;4.63;;
13592;SDS011;6867;50.998;4.250;2024-02-21T10:50:22;12.00;;;4.60;;
13592;SDS011;6867;50.998;4.250;2024-02-21T10:52:54;9.23;;;4.93;;
13592;SDS011;6867;50.998;4.250;2024-02-21T10:55:32;8.27;;;4.37;;
13592;SDS011;6867;50.998;4.250;2024-02-21T10:58:04;10.63;;;4.87;;
13592;SDS011;6867;50.998;4.250;2024-02-21T11:00:31;10.93;;;4.97;;
13592;SDS011;6867;50.998;4.250;2024-02-21T11:02:59;9.67;;;5.53;;
13592;SDS011;6867;50.998;4.250;2024-02-21T11:05:26;11.87;;;5.60;;
13592;SDS011;6867;50.998;4.250;2024-02-21T11:07:54;11.83;;;5.57;;
13592;SDS011;6867;50.998;4.250;2024-02-21T11:10:24;10.13;;;4.70;;
13592;SDS011;6867;50.998;4.250;2024-02-21T11:12:52;10.67;;;5.03;;
13592;SDS011;6867;50.998;4.250;2024-02-21T11:15:24;10.50;;;5.17;;
13592;SDS011;6867;50.998;4.250;2024-02-21T11:17:55;11.70;;;5.27;;
13592;SDS011;6867;50.998;4.250;2024-02-21T11:20:31;13.30;;;5.73;;
13592;SDS011;6867;50.998;4.250;2024-02-21T11:22:59;11.07;;;5.33;;
13592;SDS011;6867;50.998;4.250;2024-02-21T11:25:28;11.20;;;5.40;;
13592;SDS011;6867;50.998;4.250;2024-02-21T11:27:59;12.67;;;5.43;;
13592;SDS011;6867;50.998;4.250;2024-02-21T11:30:27;8.93;;;4.77;;
13592;SDS011;6867;50.998;4.250;2024-02-21T11:32:59;9.73;;;4.70;;
13592;SDS011;6867;50.998;4.250;2024-02-21T11:35:30;12.67;;;4.47;;
13592;SDS011;6867;50.998;4.250;2024-02-21T11:38:07;8.13;;;4.43;;
13592;SDS011;6867;50.998;4.250;2024-02-21T11:40:37;10.87;;;4.97;;
13592;SDS011;6867;50.998;4.250;2024-02-21T11:43:05;8.93;;;4.07;;
13592;SDS011;6867;50.998;4.250;2024-02-21T11:45:32;12.23;;;4.50;;
13592;SDS011;6867;50.998;4.250;2024-02-21T11:47:59;8.57;;;4.20;;
13592;SDS011;6867;50.998;4.250;2024-02-21T11:50:28;11.30;;;4.97;;
13592;SDS011;6867;50.998;4.250;2024-02-21T11:52:55;16.77;;;4.53;;
13592;SDS011;6867;50.998;4.250;2024-02-21T11:55:22;9.33;;;3.97;;
13592;SDS011;6867;50.998;4.250;2024-02-21T11:57:50;6.33;;;3.63;;
13592;SDS011;6867;50.998;4.250;2024-02-21T12:00:17;9.30;;;4.00;;
13592;SDS011;6867;50.998;4.250;2024-02-21T12:02:46;7.13;;;3.43;;
13592;SDS011;6867;50.998;4.250;2024-02-21T12:05:13;6.47;;;2.93;;
13592;SDS011;6867;50.998;4.250;2024-02-21T12:07:40;5.63;;;3.00;;
13592;SDS011;6867;50.998;4.250;2024-02-21T12:10:08;9.90;;;3.20;;
13592;SDS011;6867;50.998;4.250;2024-02-21T12:12:36;6.87;;;3.10;;
13592;SDS011;6867;50.998;4.250;2024-02-21T12:15:04;5.00;;;3.37;;
13592;SDS011;6867;50.998;4.250;2024-02-21T12:17:32;3.67;;;2.63;;
13592;SDS011;6867;50.998;4.250;2024-02-21T12:20:00;7.20;;;3.07;;
13592;SDS011;6867;50.998;4.250;2024-02-21T12:22:29;7.03;;;3.00;;
13592;SDS011;6867;50.998;4.250;2024-02-21T12:24:57;4.57;;;2.93;;
13592;SDS011;6867;50.998;4.250;2024-02-21T12:27:24;7.50;;;3.00;;
13592;SDS011;6867;50.998;4.250;2024-02-21T12:29:51;5.90;;;3.10;;
13592;SDS011;6867;50.998;4.250;2024-02-21T12:32:19;7.17;;;3.33;;
13592;SDS011;6867;50.998;4.250;2024-02-21T12:34:46;3.50;;;2.70;;
13592;SDS011;6867;50.998;4.250;2024-02-21T12:37:13;9.73;;;3.90;;
13592;SDS011;6867;50.998;4.250;2024-02-21T12:39:41;4.90;;;3.30;;
13592;SDS011;6867;50.998;4.250;2024-02-21T12:42:07;7.50;;;3.53;;
13592;SDS011;6867;50.998;4.250;2024-02-21T12:44:36;7.00;;;3.53;;
13592;SDS011;6867;50.998;4.250;2024-02-21T12:47:03;5.97;;;3.30;;
13592;SDS011;6867;50.998;4.250;2024-02-21T12:49:31;7.30;;;3.40;;
13592;SDS011;6867;50.998;4.250;2024-02-21T12:51:58;7.97;;;3.67;;
13592;SDS011;6867;50.998;4.250;2024-02-21T12:54:24;8.07;;;3.40;;
13592;SDS011;6867;50.998;4.250;2024-02-21T12:56:51;4.47;;;3.00;;
13592;SDS011;6867;50.998;4.250;2024-02-21T12:59:18;10.23;;;3.50;;
13592;SDS011;6867;50.998;4.250;2024-02-21T13:01:45;6.13;;;3.73;;
13592;SDS011;6867;50.998;4.250;2024-02-21T13:04:11;4.00;;;2.97;;
13592;SDS011;6867;50.998;4.250;2024-02-21T13:06:39;5.07;;;3.20;;
13592;SDS011;6867;50.998;4.250;2024-02-21T13:09:06;6.97;;;3.17;;
13592;SDS011;6867;50.998;4.250;2024-02-21T13:11:36;8.80;;;3.10;;
13592;SDS011;6867;50.998;4.250;2024-02-21T13:14:03;7.00;;;3.50;;
13592;SDS011;6867;50.998;4.250;2024-02-21T13:16:29;6.83;;;3.40;;
13592;SDS011;6867;50.998;4.250;2024-02-21T13:18:56;5.03;;;3.10;;
13592;SDS011;6867;50.998;4.250;2024-02-21T13:21:23;4.77;;;3.30;;
13592;SDS011;6867;50.998;4.250;2024-02-21T13:23:51;6.10;;;3.90;;
13592;SDS011;6867;50.998;4.250;2024-02-21T13:26:17;4.23;;;3.30;;
13592;SDS011;6867;50.998;4.250;2024-02-21T13:28:45;8.00;;;3.47;;
13592;SDS011;6867;50.998;4.250;2024-02-21T13:31:13;6.40;;;3.40;;
13592;SDS011;6867;50.998;4.250;2024-02-21T13:33:41;7.03;;;3.47;;
13592;SDS011;6867;50.998;4.250;2024-02-21T13:36:09;4.27;;;3.27;;
13592;SDS011;6867;50.998;4.250;2024-02-21T13:38:36;5.57;;;3.30;;
13592;SDS011;6867;50.998;4.250;2024-02-21T13:41:05;4.90;;;3.50;;
13592;SDS011;6867;50.998;4.250;2024-02-21T13:43:32;8.57;;;3.57;;
13592;SDS011;6867;50.998;4.250;2024-02-21T13:45:59;10.60;;;4.30;;
13592;SDS011;6867;50.998;4.250;2024-02-21T13:48:28;10.97;;;4.30;;
13592;SDS011;6867;50.998;4.250;2024-02-21T13:50:55;11.40;;;3.83;;
13592;SDS011;6867;50.998;4.250;2024-02-21T13:53:22;8.07;;;3.67;;
13592;SDS011;6867;50.998;4.250;2024-02-21T13:55:49;8.33;;;3.47;;
13592;SDS011;6867;50.998;4.250;2024-02-21T13:58:17;15.77;;;3.37;;
13592;SDS011;6867;50.998;4.250;2024-02-21T14:00:45;7.80;;;3.80;;
13592;SDS011;6867;50.998;4.250;2024-02-21T14:03:12;5.83;;;4.00;;
13592;SDS011;6867;50.998;4.250;2024-02-21T14:05:38;9.57;;;4.60;;
13592;SDS011;6867;50.998;4.250;2024-02-21T14:08:06;9.97;;;5.00;;
13592;SDS011;6867;50.998;4.250;2024-02-21T14:10:32;8.07;;;4.93;;
13592;SDS011;6867;50.998;4.250;2024-02-21T14:12:59;8.20;;;5.40;;
13592;SDS011;6867;50.998;4.250;2024-02-21T14:15:28;10.07;;;4.97;;
13592;SDS011;6867;50.998;4.250;2024-02-21T14:17:55;11.87;;;5.67;;
13592;SDS011;6867;50.998;4.250;2024-02-21T14:20:22;12.57;;;5.87;;
13592;SDS011;6867;50.998;4.250;2024-02-21T14:22:49;9.73;;;5.37;;
13592;SDS011;6867;50.998;4.250;2024-02-21T14:25:15;11.67;;;5.90;;
13592;SDS011;6867;50.998;4.250;2024-02-21T14:27:42;10.17;;;5.60;;
13592;SDS011;6867;50.998;4.250;2024-02-21T14:30:09;11.63;;;5.80;;
13592;SDS011;6867;50.998;4.250;2024-02-21T14:32:38;11.77;;;5.87;;
13592;SDS011;6867;50.998;4.250;2024-02-21T14:35:06;10.10;;;5.37;;
13592;SDS011;6867;50.998;4.250;2024-02-21T14:37:33;8.70;;;5.10;;
13592;SDS011;6867;50.998;4.250;2024-02-21T14:40:00;8.50;;;5.30;;
13592;SDS011;6867;50.998;4.250;2024-02-21T14:42:28;12.40;;;6.00;;
13592;SDS011;6867;50.998;4.250;2024-02-21T14:44:56;7.80;;;5.27;;
13592;SDS011;6867;50.998;4.250;2024-02-21T14:47:29;8.80;;;5.07;;
13592;SDS011;6867;50.998;4.250;2024-02-21T14:49:58;6.67;;;4.50;;
13592;SDS011;6867;50.998;4.250;2024-02-21T14:52:24;9.33;;;5.03;;